Weather at Khartoum International Airport

Public forecast

Using degrees Celsius for public forecast. Weather courtesy of forecast.io.

Current aviation weather report (METAR) for Khartoum International Airport

Retrieved 2021/10/24 08:30 UTC (0 seconds ago):

HSSK 240830Z 05009KT CAVOK 38/12 Q1012 NOSIG

Closest aviation forecast (TAF) to Khartoum International Airport

Retrieved 2021/10/24 06:42 UTC (2 hours ago):

TAF HSSK 240500Z 2406/2512 34008G18KT CAVOK TEMPO 2406/2409 5000 HZ